createdAt,value
2022-10-07T00:00:18.247Z,54.80
2022-10-07T00:02:19.958Z,54.80
2022-10-07T00:04:22.033Z,54.80
2022-10-07T00:06:23.674Z,54.80
2022-10-07T00:08:25.245Z,54.80
2022-10-07T00:10:27.542Z,54.80
2022-10-07T00:12:29.344Z,54.80
2022-10-07T00:14:30.934Z,54.80
2022-10-07T00:16:34.861Z,54.80
2022-10-07T00:18:37.655Z,54.80
2022-10-07T00:20:40.135Z,54.70
2022-10-07T00:22:41.748Z,54.80
2022-10-07T00:24:43.899Z,54.80
2022-10-07T00:26:45.552Z,54.80
2022-10-07T00:28:47.242Z,54.90
2022-10-07T00:31:00.434Z,54.80
2022-10-07T00:33:02.090Z,54.80
2022-10-07T00:35:03.869Z,55.50
2022-10-07T00:37:05.512Z,54.80
2022-10-07T00:39:11.003Z,54.80
2022-10-07T00:41:22.212Z,54.80
2022-10-07T00:43:26.773Z,54.80
2022-10-07T00:45:29.747Z,54.80
2022-10-07T00:47:36.807Z,54.80
2022-10-07T00:49:56.422Z,54.80
2022-10-07T00:51:58.551Z,54.90
2022-10-07T00:54:03.275Z,54.90
2022-10-07T00:56:07.530Z,54.90
2022-10-07T00:58:09.585Z,55.00
2022-10-07T01:00:11.766Z,55.00
2022-10-07T01:02:13.493Z,55.10
2022-10-07T01:04:15.314Z,55.00
2022-10-07T01:06:17.260Z,55.00
2022-10-07T01:08:20.360Z,55.10
2022-10-07T01:10:24.277Z,55.10
2022-10-07T01:12:34.880Z,55.00
2022-10-07T01:14:57.153Z,55.00
2022-10-07T01:17:23.120Z,55.00
2022-10-07T01:19:56.452Z,55.00
2022-10-07T01:22:13.936Z,55.10
2022-10-07T01:24:29.116Z,55.00
2022-10-07T01:26:53.433Z,55.00
2022-10-07T01:29:13.965Z,55.10
2022-10-07T01:31:19.592Z,55.10
2022-10-07T01:33:27.767Z,55.00
2022-10-07T01:35:34.666Z,55.10
2022-10-07T01:37:43.306Z,55.10
2022-10-07T01:39:56.892Z,55.10
2022-10-07T01:41:59.827Z,55.20
2022-10-07T01:44:01.947Z,55.20
2022-10-07T01:46:06.833Z,55.30
2022-10-07T01:48:08.846Z,55.20
2022-10-07T01:50:14.410Z,55.20
2022-10-07T01:52:19.032Z,55.10
2022-10-07T01:54:42.128Z,55.10
2022-10-07T01:57:02.517Z,55.10
2022-10-07T01:59:16.327Z,55.10
2022-10-07T02:01:24.580Z,55.10
2022-10-07T02:03:37.462Z,55.10
2022-10-07T02:06:03.374Z,55.10
2022-10-07T02:08:23.881Z,55.10
2022-10-07T02:10:35.517Z,55.30
2022-10-07T02:12:52.371Z,55.20
2022-10-07T02:15:11.751Z,55.20
2022-10-07T02:17:19.347Z,55.90
2022-10-07T02:19:29.063Z,55.20
2022-10-07T02:21:35.829Z,55.20
2022-10-07T02:23:39.955Z,55.20
2022-10-07T02:25:47.272Z,55.20
2022-10-07T02:27:53.863Z,55.10
2022-10-07T02:29:59.259Z,55.20
2022-10-07T02:32:05.039Z,55.10
2022-10-07T02:34:09.703Z,55.10
2022-10-07T02:36:16.736Z,55.10
2022-10-07T02:38:19.008Z,55.10
2022-10-07T02:40:22.651Z,55.10
2022-10-07T02:42:39.222Z,55.10
2022-10-07T02:44:49.354Z,55.10
2022-10-07T02:47:43.546Z,55.10
2022-10-07T02:49:48.627Z,55.20
2022-10-07T02:52:06.753Z,55.10
2022-10-07T02:54:08.386Z,55.20
2022-10-07T02:56:10.303Z,55.10
2022-10-07T02:58:12.853Z,55.10
2022-10-07T03:00:15.775Z,55.10
2022-10-07T03:02:23.482Z,55.10
2022-10-07T03:04:25.200Z,55.10
2022-10-07T03:06:29.515Z,55.10
2022-10-07T03:08:32.227Z,55.10
2022-10-07T03:10:34.351Z,55.00
2022-10-07T03:12:35.984Z,55.10
2022-10-07T03:14:37.581Z,55.00
2022-10-07T03:16:39.203Z,55.10
2022-10-07T03:18:41.252Z,55.10
2022-10-07T03:20:42.845Z,55.10
2022-10-07T03:22:44.927Z,55.10
2022-10-07T03:24:46.651Z,55.00
2022-10-07T03:26:48.262Z,55.10
2022-10-07T03:28:49.924Z,55.10
2022-10-07T03:30:51.823Z,55.10
2022-10-07T03:32:54.279Z,55.10
2022-10-07T03:34:55.964Z,55.00
2022-10-07T03:36:57.958Z,55.10
2022-10-07T03:38:59.679Z,55.10
2022-10-07T03:41:03.846Z,54.90
2022-10-07T03:43:07.151Z,55.10
2022-10-07T03:45:09.153Z,55.20
2022-10-07T03:47:11.704Z,55.20
2022-10-07T03:49:13.549Z,55.10
2022-10-07T03:51:15.246Z,55.10
2022-10-07T03:53:16.886Z,55.10
2022-10-07T03:55:19.228Z,55.10
2022-10-07T03:57:39.408Z,55.20
2022-10-07T03:59:40.998Z,55.20
2022-10-07T04:01:42.662Z,55.20
2022-10-07T04:03:44.887Z,55.10
2022-10-07T04:05:59.611Z,55.20
2022-10-07T04:08:01.325Z,55.00
2022-10-07T04:10:03.051Z,55.10
2022-10-07T04:12:04.848Z,55.10
2022-10-07T04:14:06.584Z,55.00
2022-10-07T04:16:09.930Z,55.10
2022-10-07T04:18:11.615Z,54.80
2022-10-07T04:20:15.144Z,55.20
2022-10-07T04:22:16.773Z,55.30
2022-10-07T04:24:18.380Z,55.30
2022-10-07T04:26:20.043Z,55.30
2022-10-07T04:28:25.960Z,54.90
2022-10-07T04:30:29.097Z,55.50
2022-10-07T04:32:31.476Z,55.50
2022-10-07T04:34:33.153Z,55.40
2022-10-07T04:36:34.743Z,55.20
2022-10-07T04:38:36.444Z,55.60
2022-10-07T04:40:42.952Z,55.40
2022-10-07T04:43:03.441Z,55.80
2022-10-07T04:45:06.010Z,55.30
2022-10-07T04:47:07.672Z,55.80
2022-10-07T04:49:10.488Z,55.70
2022-10-07T04:51:12.419Z,55.70
2022-10-07T04:53:15.709Z,55.70
2022-10-07T04:55:17.388Z,55.60
2022-10-07T04:57:19.049Z,55.50
2022-10-07T04:59:23.626Z,55.60
2022-10-07T05:01:26.163Z,55.60
2022-10-07T05:03:29.111Z,55.50
2022-10-07T05:05:30.797Z,55.60
2022-10-07T05:07:32.458Z,55.70
2022-10-07T05:09:34.535Z,55.50
2022-10-07T05:11:37.532Z,55.40
2022-10-07T05:13:39.633Z,55.20
2022-10-07T05:15:58.067Z,55.10
2022-10-07T05:17:59.751Z,55.00
2022-10-07T05:20:02.004Z,55.00
2022-10-07T05:22:04.118Z,55.00
2022-10-07T05:24:05.749Z,54.90
2022-10-07T05:26:10.452Z,54.80
2022-10-07T05:28:14.262Z,54.80
2022-10-07T05:30:15.942Z,54.70
2022-10-07T05:32:17.539Z,54.80
2022-10-07T05:34:20.208Z,54.70
2022-10-07T05:36:21.950Z,54.70
2022-10-07T05:38:23.798Z,54.60
2022-10-07T05:40:25.563Z,54.60
2022-10-07T05:42:27.420Z,54.60
2022-10-07T05:44:32.035Z,54.50
2022-10-07T05:46:33.650Z,54.50
2022-10-07T05:48:39.350Z,54.50
2022-10-07T05:50:42.227Z,54.40
2022-10-07T05:52:45.306Z,54.30
2022-10-07T05:54:47.005Z,54.30
2022-10-07T05:56:49.339Z,54.40
2022-10-07T05:58:52.550Z,54.20
2022-10-07T06:00:58.047Z,54.20
2022-10-07T06:03:02.480Z,54.20
2022-10-07T06:05:04.535Z,54.20
2022-10-07T06:07:06.120Z,54.20
2022-10-07T06:09:26.579Z,54.10
2022-10-07T06:11:46.948Z,54.10
2022-10-07T06:13:50.555Z,54.20
2022-10-07T06:15:52.132Z,54.20
2022-10-07T06:17:53.728Z,54.00
2022-10-07T06:19:55.331Z,53.90
2022-10-07T06:21:56.928Z,53.80
2022-10-07T06:23:58.581Z,53.60
2022-10-07T06:26:15.344Z,54.10
2022-10-07T06:28:17.359Z,53.80
2022-10-07T06:30:19.119Z,54.40
2022-10-07T06:32:20.905Z,54.00
2022-10-07T06:34:22.539Z,54.50
2022-10-07T06:36:24.213Z,54.50
2022-10-07T06:38:25.864Z,54.40
2022-10-07T06:40:27.607Z,54.50
2022-10-07T06:42:29.225Z,54.00
2022-10-07T06:44:31.165Z,54.00
2022-10-07T06:46:32.818Z,54.00
2022-10-07T06:48:35.706Z,54.00
2022-10-07T06:50:37.320Z,53.90
2022-10-07T06:52:43.282Z,53.90
2022-10-07T06:54:45.228Z,53.90
2022-10-07T06:56:46.866Z,54.00
2022-10-07T06:58:49.773Z,54.00
2022-10-07T07:00:52.241Z,54.30
2022-10-07T07:02:53.846Z,54.40
2022-10-07T07:04:57.751Z,54.40
2022-10-07T07:06:59.593Z,54.40
2022-10-07T07:09:05.013Z,54.40
2022-10-07T07:11:30.072Z,54.40
2022-10-07T07:13:34.989Z,54.40
2022-10-07T07:15:37.111Z,54.60
2022-10-07T07:17:38.761Z,54.30
2022-10-07T07:19:40.369Z,54.30
2022-10-07T07:21:42.119Z,54.30
2022-10-07T07:23:43.778Z,54.20
2022-10-07T07:25:46.110Z,54.20
2022-10-07T07:27:52.434Z,54.20
2022-10-07T07:29:58.577Z,54.20
2022-10-07T07:32:00.799Z,54.30
2022-10-07T07:34:07.151Z,54.20
2022-10-07T07:36:16.339Z,54.10
2022-10-07T07:38:19.365Z,54.10
2022-10-07T07:40:23.739Z,54.10
2022-10-07T07:42:28.142Z,54.00
2022-10-07T07:44:34.025Z,54.10
2022-10-07T07:46:43.052Z,53.90
2022-10-07T07:48:44.919Z,54.00
2022-10-07T07:50:46.546Z,53.90
2022-10-07T07:52:48.157Z,53.90
2022-10-07T07:54:51.603Z,53.80
2022-10-07T07:56:57.600Z,53.80
2022-10-07T07:59:01.166Z,54.00
2022-10-07T08:01:13.444Z,54.00
2022-10-07T08:03:15.150Z,53.90
2022-10-07T08:05:21.400Z,54.00
2022-10-07T08:07:26.725Z,53.90
2022-10-07T08:09:28.332Z,54.00
2022-10-07T08:11:30.124Z,54.00
2022-10-07T08:13:33.024Z,54.00
2022-10-07T08:15:34.697Z,54.10
2022-10-07T08:17:36.342Z,53.90
2022-10-07T08:19:38.508Z,53.90
2022-10-07T08:21:40.407Z,53.90
2022-10-07T08:23:42.427Z,54.00
2022-10-07T08:25:44.016Z,53.80
2022-10-07T08:27:45.848Z,53.90
2022-10-07T08:29:47.670Z,53.80
2022-10-07T08:31:49.750Z,53.80
2022-10-07T08:33:51.361Z,53.70
2022-10-07T08:35:59.323Z,53.70
2022-10-07T08:38:00.935Z,53.70
2022-10-07T08:40:02.946Z,53.60
2022-10-07T08:42:13.334Z,53.40
2022-10-07T08:44:20.673Z,53.40
2022-10-07T08:46:27.769Z,53.30
2022-10-07T08:48:34.090Z,53.20
2022-10-07T08:50:51.694Z,53.40
2022-10-07T08:52:54.795Z,54.00
2022-10-07T08:54:56.496Z,54.00
2022-10-07T08:57:06.895Z,54.40
2022-10-07T08:59:29.473Z,54.30
2022-10-07T09:01:51.907Z,54.70
2022-10-07T09:04:18.371Z,54.40
2022-10-07T09:06:28.296Z,54.90
2022-10-07T09:08:34.640Z,54.40
2022-10-07T09:10:38.337Z,55.30
2022-10-07T09:12:54.936Z,55.00
2022-10-07T09:14:58.946Z,54.90
2022-10-07T09:17:08.424Z,54.70
2022-10-07T09:19:26.222Z,54.50
2022-10-07T09:21:49.001Z,54.50
2022-10-07T09:23:57.293Z,54.20
2022-10-07T09:25:59.135Z,54.70
2022-10-07T09:28:00.835Z,54.50
2022-10-07T09:30:03.728Z,54.70
2022-10-07T09:32:05.401Z,54.90
2022-10-07T09:34:19.515Z,54.70
2022-10-07T09:36:21.275Z,54.40
2022-10-07T09:38:32.102Z,54.10
2022-10-07T09:41:07.788Z,53.60
2022-10-07T09:43:13.861Z,53.40
2022-10-07T09:45:32.039Z,54.10
2022-10-07T09:47:40.304Z,53.70
2022-10-07T09:49:45.043Z,53.60
2022-10-07T09:52:15.634Z,53.60
2022-10-07T09:54:20.144Z,53.70
2022-10-07T09:56:54.382Z,53.80
2022-10-07T09:59:25.757Z,53.70
2022-10-07T10:01:27.361Z,53.90
2022-10-07T10:03:34.729Z,54.00
2022-10-07T10:05:51.227Z,54.10
2022-10-07T10:07:56.544Z,54.80
2022-10-07T10:10:03.380Z,54.90
2022-10-07T10:12:15.372Z,55.00
2022-10-07T10:14:59.533Z,54.20
2022-10-07T10:17:01.275Z,54.80
2022-10-07T10:19:24.293Z,54.70
2022-10-07T10:21:40.706Z,55.00
2022-10-07T10:23:47.491Z,55.00
2022-10-07T10:26:22.772Z,54.80
2022-10-07T10:28:50.161Z,54.90
2022-10-07T10:30:59.774Z,54.90
2022-10-07T10:33:10.070Z,55.00
2022-10-07T10:35:35.061Z,55.00
2022-10-07T10:37:52.001Z,54.80
2022-10-07T10:40:15.328Z,55.00
2022-10-07T10:42:25.272Z,55.00
2022-10-07T10:44:32.915Z,55.80
2022-10-07T10:46:52.246Z,55.20
2022-10-07T10:49:02.352Z,55.20
2022-10-07T10:51:46.260Z,55.30
2022-10-07T10:54:04.634Z,55.30
2022-10-07T10:56:26.193Z,55.40
2022-10-07T10:58:42.755Z,55.30
2022-10-07T11:00:50.349Z,55.00
2022-10-07T11:03:03.933Z,54.70
2022-10-07T11:05:26.143Z,54.80
2022-10-07T11:07:35.475Z,55.00
2022-10-07T11:09:43.793Z,55.20
2022-10-07T11:11:45.669Z,55.20
2022-10-07T11:14:09.925Z,55.10
2022-10-07T11:16:36.427Z,55.10
2022-10-07T11:18:45.618Z,55.20
2022-10-07T11:20:48.632Z,55.10
2022-10-07T11:22:58.911Z,55.10
2022-10-07T11:25:15.823Z,55.10
2022-10-07T11:27:35.838Z,55.10
2022-10-07T11:30:06.503Z,55.00
2022-10-07T11:32:16.169Z,55.10
2022-10-07T11:34:37.057Z,55.10
2022-10-07T11:36:48.265Z,55.00
2022-10-07T11:38:52.516Z,55.00
2022-10-07T11:41:03.741Z,55.10
2022-10-07T11:43:12.476Z,55.10
2022-10-07T11:45:19.465Z,55.10
2022-10-07T11:47:26.249Z,55.10
2022-10-07T11:49:35.958Z,55.10
2022-10-07T11:51:50.093Z,55.10
2022-10-07T11:53:55.620Z,55.00
2022-10-07T11:56:05.687Z,55.00
2022-10-07T11:58:26.062Z,55.00
2022-10-07T12:00:36.705Z,55.00
2022-10-07T12:02:42.071Z,55.00
2022-10-07T12:04:43.812Z,55.10
2022-10-07T12:07:23.047Z,55.00
2022-10-07T12:10:07.403Z,55.00
2022-10-07T12:12:13.787Z,54.80
2022-10-07T12:14:40.968Z,54.90
2022-10-07T12:16:54.212Z,54.90
2022-10-07T12:19:07.641Z,54.90
2022-10-07T12:21:09.346Z,55.00
2022-10-07T12:23:20.370Z,54.70
2022-10-07T12:25:31.896Z,54.90
2022-10-07T12:27:34.752Z,54.90
2022-10-07T12:29:58.516Z,54.80
2022-10-07T12:32:00.874Z,54.80
2022-10-07T12:34:05.540Z,54.80
2022-10-07T12:36:20.053Z,54.80
2022-10-07T12:38:31.106Z,54.70
2022-10-07T12:40:35.747Z,54.80
2022-10-07T12:42:53.985Z,55.40
2022-10-07T12:44:57.074Z,54.90
2022-10-07T12:47:12.870Z,54.80
2022-10-07T12:49:45.502Z,54.70
2022-10-07T12:51:47.246Z,54.60
2022-10-07T12:53:50.623Z,54.80
2022-10-07T12:55:55.277Z,54.70
2022-10-07T12:58:17.113Z,54.70
2022-10-07T13:00:24.568Z,55.20
2022-10-07T13:02:41.793Z,54.90
2022-10-07T13:05:15.918Z,54.90
2022-10-07T13:07:49.450Z,54.80
2022-10-07T13:10:06.283Z,54.90
2022-10-07T13:12:41.452Z,54.70
2022-10-07T13:14:43.104Z,55.10
2022-10-07T13:16:56.421Z,54.80
2022-10-07T13:19:00.331Z,54.90
2022-10-07T13:21:30.719Z,55.00
2022-10-07T13:23:34.078Z,54.90
2022-10-07T13:25:42.429Z,55.20
2022-10-07T13:27:53.745Z,55.00
2022-10-07T13:29:56.909Z,55.00
2022-10-07T13:32:06.967Z,55.20
2022-10-07T13:34:16.333Z,54.90
2022-10-07T13:36:24.092Z,52.80
2022-10-07T13:38:28.180Z,51.80
2022-10-07T13:40:35.703Z,51.50
2022-10-07T13:42:37.432Z,51.20
2022-10-07T13:44:43.618Z,51.10
2022-10-07T13:47:03.360Z,51.00
2022-10-07T13:49:05.344Z,51.20
2022-10-07T13:51:07.311Z,50.90
2022-10-07T13:53:37.213Z,50.90
2022-10-07T13:55:38.879Z,50.80
2022-10-07T13:57:43.955Z,50.80
2022-10-07T13:59:46.786Z,50.90
2022-10-07T14:01:53.823Z,50.60
2022-10-07T14:04:23.293Z,50.60
2022-10-07T14:06:53.677Z,50.70
2022-10-07T14:08:55.280Z,50.90
2022-10-07T14:11:07.186Z,51.10
2022-10-07T14:13:14.797Z,51.30
2022-10-07T14:15:20.480Z,51.00
2022-10-07T14:17:44.290Z,51.50
2022-10-07T14:19:53.132Z,51.30
2022-10-07T14:21:54.924Z,51.20
2022-10-07T14:23:56.709Z,51.00
2022-10-07T14:26:06.336Z,51.20
2022-10-07T14:28:23.953Z,51.10
2022-10-07T14:30:28.882Z,50.90
2022-10-07T14:32:49.517Z,50.70
2022-10-07T14:35:09.895Z,51.00
2022-10-07T14:37:26.236Z,51.10
2022-10-07T14:39:44.804Z,50.90
2022-10-07T14:41:47.027Z,50.90
2022-10-07T14:43:51.775Z,51.00
2022-10-07T14:45:53.452Z,50.80
2022-10-07T14:47:55.095Z,50.90
2022-10-07T14:49:58.007Z,50.90
2022-10-07T14:52:00.858Z,50.80
2022-10-07T14:54:06.513Z,51.00
2022-10-07T14:56:13.964Z,51.50
2022-10-07T14:58:15.593Z,51.70
2022-10-07T15:00:20.473Z,51.60
2022-10-07T15:02:22.416Z,51.70
2022-10-07T15:04:24.259Z,52.00
2022-10-07T15:06:26.025Z,51.70
2022-10-07T15:08:27.651Z,51.90
2022-10-07T15:10:29.356Z,51.80
2022-10-07T15:12:31.128Z,52.20
2022-10-07T15:14:33.243Z,51.50
2022-10-07T15:16:34.920Z,51.60
2022-10-07T15:18:41.076Z,51.60
2022-10-07T15:20:45.034Z,51.60
2022-10-07T15:22:47.019Z,52.40
2022-10-07T15:24:48.836Z,52.00
2022-10-07T15:26:50.610Z,52.40
2022-10-07T15:28:54.887Z,52.90
2022-10-07T15:31:08.032Z,54.20
2022-10-07T15:33:10.921Z,53.70
2022-10-07T15:35:12.507Z,53.90
2022-10-07T15:37:14.361Z,54.30
2022-10-07T15:39:15.958Z,54.50
2022-10-07T15:41:34.387Z,54.40
2022-10-07T15:43:36.025Z,53.80
2022-10-07T15:45:44.847Z,54.70
2022-10-07T15:47:46.445Z,54.90
2022-10-07T15:49:49.020Z,55.00
2022-10-07T15:51:50.892Z,54.30
2022-10-07T15:53:53.736Z,54.50
2022-10-07T15:55:57.248Z,54.10
2022-10-07T15:57:58.971Z,54.00
2022-10-07T16:00:01.511Z,54.00
2022-10-07T16:02:04.232Z,54.20
2022-10-07T16:04:06.048Z,54.20
2022-10-07T16:06:13.879Z,54.20
2022-10-07T16:08:15.472Z,54.30
2022-10-07T16:10:17.076Z,54.40
2022-10-07T16:12:18.732Z,54.50
2022-10-07T16:14:20.356Z,54.50
2022-10-07T16:16:24.362Z,54.60
2022-10-07T16:18:25.976Z,54.70
2022-10-07T16:20:27.756Z,54.80
2022-10-07T16:22:29.390Z,55.50
2022-10-07T16:24:35.209Z,55.40
2022-10-07T16:26:37.461Z,55.50
2022-10-07T16:28:59.088Z,55.40
2022-10-07T16:31:00.753Z,55.20
2022-10-07T16:33:02.380Z,55.90
2022-10-07T16:35:04.244Z,55.60
2022-10-07T16:37:06.183Z,55.60
2022-10-07T16:39:08.893Z,55.50
2022-10-07T16:41:10.499Z,56.20
2022-10-07T16:43:12.099Z,55.80
2022-10-07T16:45:13.707Z,56.40
2022-10-07T16:47:15.307Z,56.20
2022-10-07T16:49:18.224Z,56.20
2022-10-07T16:51:22.684Z,55.60
2022-10-07T16:53:24.296Z,56.00
2022-10-07T16:55:25.896Z,55.50
2022-10-07T16:57:27.493Z,55.70
2022-10-07T16:59:29.159Z,55.70
2022-10-07T17:01:31.745Z,55.90
2022-10-07T17:03:34.460Z,55.90
2022-10-07T17:05:37.408Z,55.50
2022-10-07T17:07:39.081Z,56.00
2022-10-07T17:09:40.688Z,55.90
2022-10-07T17:11:42.360Z,56.30
2022-10-07T17:13:43.977Z,56.40
2022-10-07T17:15:51.789Z,56.60
2022-10-07T17:17:54.382Z,55.20
2022-10-07T17:19:55.963Z,56.40
2022-10-07T17:22:00.951Z,57.30
2022-10-07T17:24:03.374Z,57.80
2022-10-07T17:26:07.543Z,57.90
2022-10-07T17:28:09.219Z,58.00
2022-10-07T17:30:11.580Z,58.70
2022-10-07T17:32:14.410Z,58.80
2022-10-07T17:34:17.017Z,59.70
2022-10-07T17:36:21.095Z,59.40
2022-10-07T17:38:22.743Z,59.20
2022-10-07T17:40:24.570Z,59.80
2022-10-07T17:42:26.233Z,60.00
2022-10-07T17:44:27.855Z,59.90
2022-10-07T17:46:32.877Z,60.00
2022-10-07T17:48:37.044Z,60.00
2022-10-07T17:50:38.643Z,59.90
2022-10-07T17:52:40.514Z,60.00
2022-10-07T17:54:42.119Z,60.00
2022-10-07T17:56:47.588Z,60.00
2022-10-07T17:58:50.461Z,60.00
2022-10-07T18:00:52.116Z,60.00
2022-10-07T18:02:53.763Z,60.00
2022-10-07T18:04:55.402Z,60.00
2022-10-07T18:06:58.114Z,60.00
2022-10-07T18:09:02.898Z,60.00
2022-10-07T18:11:04.623Z,59.90
2022-10-07T18:13:24.776Z,60.10
2022-10-07T18:15:26.366Z,60.40
2022-10-07T18:17:27.953Z,60.50
2022-10-07T18:19:29.657Z,60.40
2022-10-07T18:21:32.003Z,60.40
2022-10-07T18:23:34.915Z,60.10
2022-10-07T18:25:38.768Z,60.00
2022-10-07T18:27:40.503Z,59.80
2022-10-07T18:29:42.166Z,59.80
2022-10-07T18:31:43.880Z,59.80
2022-10-07T18:33:46.202Z,59.60
2022-10-07T18:35:47.936Z,59.90
2022-10-07T18:37:51.567Z,60.50
2022-10-07T18:39:53.252Z,60.80
2022-10-07T18:41:55.523Z,60.80
2022-10-07T18:43:57.119Z,60.80
2022-10-07T18:46:00.481Z,60.50
2022-10-07T18:48:02.133Z,60.60
2022-10-07T18:50:04.413Z,61.00
2022-10-07T18:52:07.238Z,61.20
2022-10-07T18:54:10.033Z,61.20
2022-10-07T18:56:14.472Z,61.20
2022-10-07T18:58:16.075Z,61.20
2022-10-07T19:00:17.859Z,61.20
2022-10-07T19:02:19.551Z,61.10
2022-10-07T19:04:21.274Z,61.00
2022-10-07T19:06:24.296Z,60.90
2022-10-07T19:08:25.904Z,61.10
2022-10-07T19:10:27.507Z,60.80
2022-10-07T19:12:47.441Z,60.80
2022-10-07T19:14:49.110Z,61.00
2022-10-07T19:16:50.884Z,60.90
2022-10-07T19:18:54.407Z,61.10
2022-10-07T19:20:58.026Z,61.10
2022-10-07T19:22:59.631Z,61.10
2022-10-07T19:25:19.659Z,60.90
2022-10-07T19:27:21.282Z,61.10
2022-10-07T19:29:22.973Z,61.00
2022-10-07T19:31:30.140Z,60.90
2022-10-07T19:33:32.186Z,61.20
2022-10-07T19:35:34.389Z,61.20
2022-10-07T19:37:36.020Z,61.20
2022-10-07T19:39:37.654Z,61.20
2022-10-07T19:41:39.453Z,61.20
2022-10-07T19:43:42.707Z,61.20
2022-10-07T19:45:44.365Z,61.10
2022-10-07T19:47:46.226Z,61.30
2022-10-07T19:49:49.071Z,61.20
2022-10-07T19:51:50.684Z,61.20
2022-10-07T19:53:53.001Z,61.20
2022-10-07T19:55:54.597Z,61.00
2022-10-07T19:57:57.587Z,61.10
2022-10-07T19:59:59.176Z,61.20
2022-10-07T20:02:01.375Z,61.20
2022-10-07T20:04:16.343Z,61.20
2022-10-07T20:06:18.024Z,61.20
2022-10-07T20:08:19.691Z,61.20
2022-10-07T20:10:22.047Z,61.20
2022-10-07T20:12:23.693Z,61.20
2022-10-07T20:14:25.327Z,61.30
2022-10-07T20:16:27.814Z,61.30
2022-10-07T20:18:29.442Z,61.20
2022-10-07T20:20:31.042Z,61.30
2022-10-07T20:22:34.309Z,61.20
2022-10-07T20:24:36.137Z,61.10
2022-10-07T20:26:38.355Z,61.30
2022-10-07T20:28:40.427Z,61.20
2022-10-07T20:30:42.116Z,61.20
2022-10-07T20:32:44.054Z,61.30
2022-10-07T20:34:48.364Z,61.30
2022-10-07T20:36:50.476Z,61.20
2022-10-07T20:39:22.896Z,61.20
2022-10-07T20:41:44.229Z,61.20
2022-10-07T20:43:45.815Z,61.20
2022-10-07T20:45:56.181Z,61.20
2022-10-07T20:47:59.516Z,61.10
2022-10-07T20:50:02.720Z,61.10
2022-10-07T20:52:18.122Z,61.10
2022-10-07T20:54:21.349Z,61.10
2022-10-07T20:56:22.964Z,61.20
2022-10-07T20:58:24.712Z,61.10
2022-10-07T21:00:26.379Z,61.10
2022-10-07T21:02:29.040Z,61.10
2022-10-07T21:04:30.773Z,61.20
2022-10-07T21:06:32.433Z,61.20
2022-10-07T21:08:34.044Z,61.20
2022-10-07T21:10:35.664Z,61.20
2022-10-07T21:12:38.311Z,60.60
2022-10-07T21:14:40.434Z,60.70
2022-10-07T21:16:42.303Z,61.00
2022-10-07T21:18:44.039Z,60.70
2022-10-07T21:20:57.038Z,60.80
2022-10-07T21:22:58.858Z,60.90
2022-10-07T21:25:00.451Z,61.10
2022-10-07T21:27:04.259Z,61.10
2022-10-07T21:29:08.019Z,61.00
2022-10-07T21:31:14.987Z,61.10
2022-10-07T21:33:16.595Z,61.20
2022-10-07T21:35:18.216Z,61.10
2022-10-07T21:37:19.791Z,61.00
2022-10-07T21:39:21.419Z,61.00
2022-10-07T21:41:34.118Z,60.90
2022-10-07T21:43:35.725Z,60.90
2022-10-07T21:45:38.647Z,61.00
2022-10-07T21:47:40.271Z,61.40
2022-10-07T21:49:41.873Z,60.90
2022-10-07T21:51:43.852Z,61.00
2022-10-07T21:53:53.048Z,60.90
2022-10-07T21:55:54.706Z,60.90
2022-10-07T21:57:56.536Z,60.90
2022-10-07T21:59:58.118Z,61.00
2022-10-07T22:01:59.714Z,61.10
2022-10-07T22:04:02.680Z,60.90
2022-10-07T22:06:06.843Z,60.90
2022-10-07T22:08:34.065Z,60.90
2022-10-07T22:10:35.686Z,60.90
2022-10-07T22:12:37.280Z,60.90
2022-10-07T22:14:39.468Z,60.90
2022-10-07T22:16:42.051Z,60.80
2022-10-07T22:18:49.933Z,60.70
2022-10-07T22:20:51.538Z,60.90
2022-10-07T22:22:57.795Z,60.70
2022-10-07T22:25:01.436Z,60.70
2022-10-07T22:27:04.316Z,60.50
2022-10-07T22:29:08.519Z,60.70
2022-10-07T22:31:11.037Z,60.70
2022-10-07T22:33:15.259Z,60.60
2022-10-07T22:35:33.780Z,60.60
2022-10-07T22:37:35.428Z,60.70
2022-10-07T22:39:37.088Z,60.50
2022-10-07T22:41:40.291Z,60.70
2022-10-07T22:43:46.355Z,60.70
2022-10-07T22:45:58.498Z,60.70
2022-10-07T22:48:00.174Z,60.60
2022-10-07T22:50:05.458Z,60.60
2022-10-07T22:52:07.647Z,60.60
2022-10-07T22:54:12.045Z,60.70
2022-10-07T22:56:16.823Z,60.60
2022-10-07T22:58:18.412Z,60.70
2022-10-07T23:00:21.318Z,60.60
2022-10-07T23:02:23.236Z,60.50
2022-10-07T23:04:24.887Z,60.50
2022-10-07T23:06:26.558Z,60.50
2022-10-07T23:08:28.696Z,60.50
2022-10-07T23:10:30.328Z,60.60
2022-10-07T23:12:32.393Z,60.60
2022-10-07T23:14:34.060Z,60.60
2022-10-07T23:16:35.968Z,60.50
2022-10-07T23:18:45.012Z,60.60
2022-10-07T23:20:46.621Z,60.70
2022-10-07T23:22:48.872Z,60.60
2022-10-07T23:24:52.347Z,60.60
2022-10-07T23:26:54.088Z,60.60
2022-10-07T23:28:58.147Z,60.50
2022-10-07T23:31:07.849Z,60.50
2022-10-07T23:33:09.509Z,60.50
2022-10-07T23:35:11.631Z,60.50
2022-10-07T23:37:13.221Z,60.50
2022-10-07T23:39:14.911Z,60.50
2022-10-07T23:41:20.008Z,60.50
2022-10-07T23:43:22.668Z,60.50
2022-10-07T23:45:24.269Z,60.40
2022-10-07T23:47:25.902Z,60.50
2022-10-07T23:49:27.488Z,60.50
2022-10-07T23:51:32.103Z,60.50
2022-10-07T23:53:35.144Z,60.50
2022-10-07T23:55:36.734Z,60.50
2022-10-07T23:57:39.263Z,60.40
2022-10-07T23:59:40.845Z,60.50
